Time;durP1;ratioP1;P1;durP2;ratioP2;P2;SDS_P1;SDS_P2;PMS_P1;PMS_P2;Temp;Humidity;BMP_temperature;BMP_pressure;BME280_temperature;BME280_humidity;BME280_pressure;Samples;Min_cycle;Max_cycle;Signal;HPM_P1;HPM_P2
2023/04/18 00:01:21;;;;;;;16.38;9.88;;;;;;;6.32;100.00;102479.56;4899250;29;20469;-92
2023/04/18 00:03:48;;;;;;;16.17;9.00;;;;;;;6.12;100.00;102458.03;4897133;29;20099;-92
2023/04/18 00:06:13;;;;;;;18.00;9.43;;;;;;;6.18;100.00;102470.59;4896545;29;20028;-92
2023/04/18 00:09:03;;;;;;;18.37;10.07;;;;;;;6.18;100.00;102471.44;4887710;29;20028;-93
2023/04/18 00:11:29;;;;;;;19.63;9.73;;;;;;;6.12;100.00;102460.69;5102993;23;20527;-92
2023/04/18 00:13:56;;;;;;;16.02;9.63;;;;;;;6.00;100.00;102444.41;4918277;29;20024;-91
2023/04/18 00:16:47;;;;;;;14.10;9.63;;;;;;;5.99;100.00;102440.88;4917329;29;20062;-92
2023/04/18 00:19:13;;;;;;;16.20;9.37;;;;;;;6.02;100.00;102453.84;4912669;29;20036;-93
2023/04/18 00:21:43;;;;;;;14.97;9.53;;;;;;;6.11;100.00;102461.75;4914838;29;20525;-92
2023/04/18 00:24:09;;;;;;;17.20;9.82;;;;;;;6.04;100.00;102458.97;4917435;29;20360;-92
2023/04/18 00:26:34;;;;;;;16.50;10.03;;;;;;;6.07;100.00;102466.59;4918273;29;20031;-92
2023/04/18 00:29:03;;;;;;;15.63;9.33;;;;;;;6.02;100.00;102466.34;4917690;29;20047;-91
2023/04/18 00:31:28;;;;;;;16.27;9.23;;;;;;;5.88;100.00;102454.69;4918935;29;20024;-92
2023/04/18 00:33:53;;;;;;;19.90;10.17;;;;;;;5.71;100.00;102438.94;4918067;29;20062;-92
2023/04/18 00:36:19;;;;;;;22.67;10.03;;;;;;;5.73;100.00;102446.72;4903564;29;20293;-92
2023/04/18 00:38:47;;;;;;;19.80;10.33;;;;;;;5.65;100.00;102437.00;4922242;29;20035;-92
2023/04/18 00:41:12;;;;;;;18.45;10.35;;;;;;;5.72;100.00;102450.38;4917710;29;20032;-92
2023/04/18 00:43:43;;;;;;;18.70;10.57;;;;;;;5.88;100.00;102470.66;4918179;29;20032;-91
2023/04/18 00:46:24;;;;;;;17.83;10.75;;;;;;;5.71;100.00;102440.75;4917748;29;20032;-91
2023/04/18 00:49:06;;;;;;;17.40;10.35;;;;;;;5.66;100.00;102429.88;4915564;29;20043;-91
2023/04/18 00:51:33;;;;;;;18.15;10.27;;;;;;;5.79;100.00;102453.97;4898665;29;20086;-92
2023/04/18 00:53:58;;;;;;;17.00;10.10;;;;;;;5.75;100.00;102434.06;4905088;29;20380;-92
2023/04/18 00:56:24;;;;;;;15.83;9.53;;;;;;;5.82;100.00;102456.25;4915191;29;20036;-92
2023/04/18 00:58:56;;;;;;;15.63;9.50;;;;;;;5.79;100.00;102461.94;4899093;29;20132;-92
2023/04/18 01:01:22;;;;;;;16.10;9.50;;;;;;;5.61;100.00;102439.22;4917153;29;20028;-93
2023/04/18 01:03:56;;;;;;;18.00;9.73;;;;;;;5.72;100.00;102458.34;4917082;29;20039;-93
2023/04/18 01:06:22;;;;;;;14.68;9.27;;;;;;;5.72;100.00;102461.84;4916962;29;20036;-93
2023/04/18 01:08:48;;;;;;;14.75;9.10;;;;;;;5.70;100.00;102465.69;4901856;29;20032;-92
2023/04/18 01:11:13;;;;;;;15.80;9.33;;;;;;;5.64;100.00;102458.47;4922419;29;20042;-92
2023/04/18 01:13:38;;;;;;;15.47;8.73;;;;;;;5.58;100.00;102444.91;4927799;29;20111;-92
2023/04/18 01:16:04;;;;;;;17.53;8.97;;;;;;;5.59;100.00;102449.19;4916310;29;20075;-92
2023/04/18 01:18:30;;;;;;;20.00;8.93;;;;;;;5.69;100.00;102458.72;4915254;29;20296;-92
2023/04/18 01:20:58;;;;;;;18.08;9.13;;;;;;;5.73;100.00;102452.03;4899765;29;20024;-92
2023/04/18 01:23:24;;;;;;;19.45;8.95;;;;;;;5.52;100.00;102440.31;4917352;29;20043;-92
2023/04/18 01:25:52;;;;;;;15.27;8.30;;;;;;;5.56;100.00;102443.44;4925485;29;20032;-92
2023/04/18 01:28:23;;;;;;;16.45;8.70;;;;;;;5.41;100.00;102440.78;4929852;29;20111;-92
2023/04/18 01:30:48;;;;;;;16.27;9.32;;;;;;;5.41;100.00;102443.44;4927234;29;20024;-92
2023/04/18 01:33:14;;;;;;;14.50;8.70;;;;;;;5.40;100.00;102450.56;4931268;29;20024;-93
2023/04/18 01:35:48;;;;;;;14.60;9.27;;;;;;;5.30;100.00;102442.06;4931110;29;20032;-92
2023/04/18 01:38:34;;;;;;;13.50;9.00;;;;;;;5.33;100.00;102438.19;4919843;29;20028;-93
2023/04/18 01:41:06;;;;;;;19.27;9.35;;;;;;;5.24;100.00;102426.81;4929788;29;20028;-92
2023/04/18 01:43:31;;;;;;;12.65;7.50;;;;;;;5.16;100.00;102403.81;4904714;29;20076;-92
2023/04/18 01:45:59;;;;;;;17.17;8.50;;;;;;;5.24;100.00;102418.84;4897046;29;20036;-92
2023/04/18 02:26:01;;;;;;;15.95;8.27;;;;;;;4.45;100.00;102390.88;4922142;29;20039;-96
2023/04/18 02:29:34;;;;;;;;;;;;;;;;;;;;;
2023/04/18 02:44:09;;;;;;;16.53;8.90;;;;;;;4.33;100.00;102431.09;5727974;23;20059;-96
2023/04/18 02:47:00;;;;;;;14.07;8.60;;;;;;;4.24;100.00;102434.81;4922597;29;20303;-96
2023/04/18 03:09:55;;;;;;;13.82;8.85;;;;;;;4.13;100.00;102429.91;3009854;23;20059;-94
2023/04/18 03:34:40;;;;;;;;;;;;;;;;;;;;;
2023/04/18 03:40:33;;;;;;;16.13;8.77;;;;;;;3.76;100.00;102425.13;4867421;29;20064;-96
2023/04/18 03:52:08;;;;;;;15.00;9.05;;;;;;;3.43;100.00;102398.75;5019888;23;20059;-96
2023/04/18 03:54:33;;;;;;;14.43;8.95;;;;;;;3.58;100.00;102414.75;4933818;29;20016;-96
2023/04/18 03:57:25;;;;;;;19.48;9.00;;;;;;;3.60;100.00;102426.00;4934075;29;20031;-95
2023/04/18 03:59:55;;;;;;;15.40;8.50;;;;;;;3.42;100.00;102402.41;4936242;29;20060;-96
2023/04/18 04:02:36;;;;;;;14.07;9.07;;;;;;;3.51;100.00;102415.59;4914137;29;20020;-94
2023/04/18 04:08:15;;;;;;;;;;;;;;;;;;;;;
2023/04/18 04:18:05;;;;;;;;;;;;;;;;;;;;;
2023/04/18 04:24:34;;;;;;;13.90;8.30;;;;;;;3.45;100.00;102431.22;4931410;29;20039;-96
2023/04/18 04:27:09;;;;;;;18.52;9.27;;;;;;;3.28;100.00;102422.47;4897698;29;20056;-96
2023/04/18 04:36:36;;;;;;;16.30;9.73;;;;;;;3.27;100.00;102422.66;4789201;29;20473;-93
2023/04/18 04:39:55;;;;;;;15.63;8.73;;;;;;;3.34;100.00;102436.84;4916335;29;20047;-95
2023/04/18 04:42:39;;;;;;;13.60;8.30;;;;;;;3.31;100.00;102429.25;4925963;29;20040;-96
2023/04/18 04:48:10;;;;;;;;;;;;;;;;;;;;;
2023/04/18 04:51:00;;;;;;;12.88;8.45;;;;;;;3.27;100.00;102438.56;4902369;29;20539;-96
2023/04/18 04:53:47;;;;;;;14.00;8.80;;;;;;;3.28;100.00;102448.16;4892197;29;20059;-96
2023/04/18 05:12:54;;;;;;;12.23;8.20;;;;;;;3.18;100.00;102443.84;4896989;29;20292;-93
2023/04/18 05:18:00;;;;;;;13.63;8.77;;;;;;;3.11;100.00;102434.09;5268709;23;20054;-96
2023/04/18 05:20:26;;;;;;;13.30;8.35;;;;;;;3.20;100.00;102450.81;4913634;29;20040;-96
2023/04/18 05:22:51;;;;;;;14.52;8.73;;;;;;;3.17;100.00;102450.13;4900450;29;20080;-92
2023/04/18 05:25:17;;;;;;;16.37;8.70;;;;;;;3.28;100.00;102458.75;4898799;29;20033;-93
2023/04/18 05:27:44;;;;;;;13.00;8.23;;;;;;;3.13;100.00;102443.53;4898913;29;20425;-93
2023/04/18 05:30:12;;;;;;;13.30;8.40;;;;;;;3.22;100.00;102452.28;4900740;29;20028;-94
2023/04/18 05:32:40;;;;;;;20.52;8.68;;;;;;;3.27;100.00;102447.31;4900667;29;20473;-92
2023/04/18 05:35:06;;;;;;;13.63;8.60;;;;;;;3.36;100.00;102458.72;4899151;29;20029;-91
2023/04/18 05:37:31;;;;;;;80.20;11.02;;;;;;;3.48;100.00;102462.66;4906625;29;20076;-90
2023/04/18 05:39:56;;;;;;;25.23;8.93;;;;;;;3.64;100.00;102460.97;4916472;29;20096;-93
2023/04/18 05:42:21;;;;;;;14.30;8.40;;;;;;;3.84;100.00;102468.50;4919843;29;20033;-92
2023/04/18 05:44:47;;;;;;;13.40;7.30;;;;;;;4.04;100.00;102472.38;4898075;29;20058;-93
2023/04/18 05:47:12;;;;;;;18.58;8.55;;;;;;;4.22;100.00;102472.13;4900465;29;20037;-92
2023/04/18 05:49:37;;;;;;;12.57;8.43;;;;;;;4.38;100.00;102473.03;4892149;29;20433;-94
2023/04/18 05:52:04;;;;;;;14.13;7.87;;;;;;;4.49;100.00;102471.81;4901677;29;20060;-93
2023/04/18 05:54:29;;;;;;;17.45;8.23;;;;;;;4.64;100.00;102480.66;4897905;29;20060;-91
2023/04/18 05:56:57;;;;;;;12.23;7.97;;;;;;;4.78;100.00;102480.88;4894129;29;20085;-95
2023/04/18 05:59:22;;;;;;;14.18;8.38;;;;;;;4.95;100.00;102495.69;4891801;29;20017;-96
2023/04/18 06:01:50;;;;;;;12.87;8.20;;;;;;;5.01;100.00;102486.19;4901440;29;20029;-95
2023/04/18 06:04:17;;;;;;;12.50;8.60;;;;;;;5.17;100.00;102490.50;4907617;29;20032;-94
2023/04/18 06:06:43;;;;;;;17.50;9.02;;;;;;;5.26;100.00;102494.75;4892804;29;20032;-96
2023/04/18 06:09:08;;;;;;;12.60;7.37;;;;;;;5.34;100.00;102474.41;4913904;29;20068;-96
2023/04/18 06:11:34;;;;;;;14.60;7.90;;;;;;;5.60;100.00;102495.22;4905621;29;20049;-95
2023/04/18 06:14:00;;;;;;;16.75;8.23;;;;;;;5.71;100.00;102496.59;4895577;29;20503;-94
2023/04/18 06:16:26;;;;;;;15.07;8.10;;;;;;;5.85;100.00;102500.28;4906922;29;20036;-91
2023/04/18 06:18:51;;;;;;;13.63;8.40;;;;;;;5.86;99.74;102484.13;4893542;29;20466;-91
2023/04/18 06:21:17;;;;;;;11.97;7.73;;;;;;;5.89;99.04;102504.22;4894507;29;20555;-90
2023/04/18 06:23:42;;;;;;;14.27;8.40;;;;;;;5.99;99.94;102493.28;4896647;29;20033;-90
2023/04/18 06:26:08;;;;;;;11.47;7.73;;;;;;;6.09;99.93;102496.50;4899198;29;20048;-90
2023/04/18 06:28:33;;;;;;;12.60;8.20;;;;;;;6.24;99.29;102503.63;4914841;29;20028;-91
2023/04/18 06:30:59;;;;;;;14.73;8.40;;;;;;;6.31;98.87;102507.19;4897051;29;20025;-89
2023/04/18 06:33:24;;;;;;;22.07;7.93;;;;;;;6.39;98.21;102498.28;4896468;29;20032;-91
2023/04/18 06:35:49;;;;;;;11.53;7.30;;;;;;;6.58;98.28;102510.13;4893692;29;20016;-90
2023/04/18 06:38:15;;;;;;;12.67;8.03;;;;;;;6.76;97.09;102504.38;4895439;29;20363;-91
2023/04/18 06:40:40;;;;;;;11.90;7.23;;;;;;;6.88;95.75;102507.38;4899237;29;20425;-96
2023/04/18 06:43:06;;;;;;;11.03;7.27;;;;;;;7.01;95.36;102518.13;4892895;29;20041;-91
2023/04/18 06:45:32;;;;;;;11.97;6.43;;;;;;;7.11;94.28;102518.63;4897592;29;20029;-93
2023/04/18 06:48:01;;;;;;;10.13;6.60;;;;;;;7.07;94.69;102517.38;4899206;29;20376;-93
2023/04/18 06:50:28;;;;;;;10.07;6.00;;;;;;;7.17;94.69;102522.38;4896678;29;20036;-93
2023/04/18 06:52:53;;;;;;;15.43;8.20;;;;;;;7.25;93.90;102516.88;4899724;29;20572;-95
2023/04/18 06:55:20;;;;;;;11.43;7.47;;;;;;;7.29;92.65;102520.00;4903543;29;20040;-96
2023/04/18 06:57:46;;;;;;;10.43;6.63;;;;;;;7.31;92.94;102523.28;4886678;29;20063;-96
2023/04/18 07:00:11;;;;;;;12.25;7.10;;;;;;;7.36;92.50;102528.84;4901998;29;20032;-94
2023/04/18 07:02:38;;;;;;;9.60;6.80;;;;;;;7.45;91.95;102529.53;4915082;29;20061;-94
2023/04/18 07:05:04;;;;;;;12.07;7.57;;;;;;;7.52;91.55;102535.75;4903158;29;20063;-95
2023/04/18 07:07:31;;;;;;;15.10;7.30;;;;;;;7.52;92.33;102525.06;4890338;29;20032;-93
2023/04/18 07:09:57;;;;;;;11.45;7.18;;;;;;;7.62;91.80;102530.06;4906693;29;20025;-95
2023/04/18 07:12:22;;;;;;;20.65;7.60;;;;;;;7.65;91.49;102528.84;4917118;29;20060;-96
2023/04/18 07:14:48;;;;;;;17.83;7.50;;;;;;;7.69;91.79;102541.59;4914288;29;20047;-96
2023/04/18 07:17:13;;;;;;;11.27;6.70;;;;;;;7.64;91.10;102544.03;4891372;29;20037;-96
2023/04/18 07:19:40;;;;;;;12.90;7.20;;;;;;;7.60;91.81;102545.44;4887538;29;20029;-92
2023/04/18 07:22:05;;;;;;;10.02;6.78;;;;;;;7.66;91.66;102538.50;4891151;29;20033;-96
2023/04/18 07:24:30;;;;;;;12.53;7.20;;;;;;;7.71;91.29;102530.72;4894678;29;20035;-96
2023/04/18 07:26:56;;;;;;;10.70;6.97;;;;;;;7.87;91.27;102529.56;4898139;29;20036;-94
2023/04/18 07:29:21;;;;;;;11.82;7.18;;;;;;;7.93;91.81;102530.66;4907271;29;20012;-96
2023/04/18 07:31:46;;;;;;;9.87;7.37;;;;;;;8.13;91.46;102531.53;4894793;29;20506;-96
2023/04/18 07:34:16;;;;;;;9.30;7.03;;;;;;;8.30;90.21;102525.88;4908012;29;20029;-94
2023/04/18 07:36:41;;;;;;;9.93;6.68;;;;;;;8.36;88.86;102537.59;4905264;29;20481;-95
2023/04/18 07:39:06;;;;;;;11.40;6.60;;;;;;;8.28;89.32;102544.75;4905878;29;20041;-95
2023/04/18 07:41:32;;;;;;;7.30;5.70;;;;;;;8.12;89.75;102539.75;4911917;29;20024;-95
2023/04/18 07:43:59;;;;;;;9.63;6.53;;;;;;;8.02;90.72;102543.63;4913578;29;20029;-95
2023/04/18 07:46:24;;;;;;;9.95;6.25;;;;;;;8.13;90.04;102538.72;4915338;29;20040;-95
2023/04/18 07:48:50;;;;;;;6.23;4.70;;;;;;;8.28;89.54;102535.91;4896879;29;20032;-95
2023/04/18 07:51:15;;;;;;;8.30;6.68;;;;;;;8.51;88.92;102546.28;4911189;29;20044;-96
2023/04/18 07:53:48;;;;;;;10.10;7.17;;;;;;;8.78;88.91;102538.31;4913363;29;20095;-95
2023/04/18 07:56:13;;;;;;;8.60;6.40;;;;;;;9.21;86.92;102545.97;4908907;29;20024;-95
2023/04/18 07:58:38;;;;;;;8.87;5.87;;;;;;;9.46;84.34;102555.19;4903012;29;20033;-92
2023/04/18 08:01:04;;;;;;;8.97;5.63;;;;;;;9.66;84.51;102555.19;4903253;29;20028;-91
2023/04/18 08:03:32;;;;;;;8.82;6.35;;;;;;;9.85;82.97;102556.16;4889119;29;20399;-91
2023/04/18 08:05:57;;;;;;;9.85;6.50;;;;;;;9.81;82.31;102553.06;4906550;29;20039;-90
2023/04/18 08:08:23;;;;;;;10.70;6.63;;;;;;;9.89;82.44;102554.69;4908920;29;20029;-90
2023/04/18 08:10:48;;;;;;;9.70;7.10;;;;;;;10.17;83.39;102553.56;4910489;29;20064;-91
2023/04/18 08:13:13;;;;;;;10.02;6.38;;;;;;;10.33;79.86;102554.09;4902363;29;20033;-89
2023/04/18 08:15:39;;;;;;;13.00;6.40;;;;;;;10.52;80.29;102552.41;4902046;29;20033;-90
2023/04/18 08:18:04;;;;;;;8.33;6.50;;;;;;;10.59;78.99;102562.03;4900410;29;20115;-94
2023/04/18 08:20:30;;;;;;;7.90;6.40;;;;;;;10.46;78.78;102559.44;4888515;29;20383;-92
2023/04/18 08:22:55;;;;;;;10.57;6.43;;;;;;;10.27;78.84;102555.78;4912681;29;20028;-94
2023/04/18 08:25:21;;;;;;;10.40;6.70;;;;;;;10.07;79.91;102545.16;4933266;23;20105;-96
2023/04/18 08:27:46;;;;;;;9.43;6.57;;;;;;;10.14;80.90;102557.50;4912013;29;20025;-95
2023/04/18 08:30:12;;;;;;;8.67;6.73;;;;;;;10.18;79.40;102560.56;4910562;29;20464;-95
2023/04/18 08:32:37;;;;;;;12.00;6.70;;;;;;;10.06;81.44;102563.06;4911400;29;20028;-95
2023/04/18 08:35:03;;;;;;;10.43;7.40;;;;;;;10.12;80.25;102567.59;4911346;29;20101;-96
2023/04/18 08:37:30;;;;;;;9.75;6.88;;;;;;;10.19;79.52;102551.50;4911580;29;20024;-95
2023/04/18 08:39:56;;;;;;;11.33;6.07;;;;;;;10.31;79.40;102565.06;4910762;29;20029;-96
2023/04/18 08:42:22;;;;;;;10.15;7.00;;;;;;;10.35;79.62;102558.22;4896804;29;20048;-94
2023/04/18 08:44:47;;;;;;;13.15;6.75;;;;;;;10.30;79.13;102550.00;4911805;29;20020;-96
2023/04/18 08:47:13;;;;;;;6.83;5.53;;;;;;;10.51;80.07;102564.16;4906527;29;20199;-95
2023/04/18 08:49:39;;;;;;;8.38;6.82;;;;;;;10.59;78.63;102554.00;4909903;29;20028;-96
2023/04/18 08:52:10;;;;;;;8.93;6.77;;;;;;;10.81;78.81;102552.81;4905244;29;20029;-96
2023/04/18 08:54:37;;;;;;;16.17;6.50;;;;;;;10.98;76.31;102545.09;4904909;29;20028;-95
2023/04/18 08:57:22;;;;;;;9.20;7.15;;;;;;;11.11;76.77;102550.34;4905048;29;20038;-95
2023/04/18 08:59:49;;;;;;;8.65;6.75;;;;;;;11.41;75.04;102546.16;4907065;29;20032;-96
2023/04/18 09:02:15;;;;;;;8.20;6.28;;;;;;;11.61;74.30;102554.84;4904600;29;20084;-96
2023/04/18 09:04:46;;;;;;;10.00;6.68;;;;;;;11.69;73.95;102540.31;4903643;29;20036;-96
2023/04/18 09:07:14;;;;;;;8.93;6.82;;;;;;;11.70;73.85;102541.94;4886083;29;20029;-96
2023/04/18 09:09:47;;;;;;;8.68;6.88;;;;;;;11.77;71.22;102541.88;4896084;29;20039;-96
2023/04/18 09:12:16;;;;;;;11.17;7.33;;;;;;;12.02;71.09;102544.50;4907691;29;20043;-95
2023/04/18 09:14:49;;;;;;;9.47;7.27;;;;;;;12.04;70.25;102537.03;4903293;29;20292;-95
2023/04/18 09:17:34;;;;;;;9.00;6.65;;;;;;;11.82;71.50;102550.09;4904909;29;20029;-95
2023/04/18 09:20:04;;;;;;;10.77;6.60;;;;;;;11.70;70.40;102550.00;4871486;29;20072;-96
2023/04/18 09:22:47;;;;;;;8.18;6.50;;;;;;;11.52;71.45;102545.41;4904352;29;20056;-95
2023/04/18 09:25:36;;;;;;;9.65;6.30;;;;;;;11.57;72.18;102540.22;4884392;29;20036;-96
2023/04/18 09:28:27;;;;;;;11.25;6.47;;;;;;;11.78;71.31;102547.00;4889112;29;20032;-96
2023/04/18 09:30:57;;;;;;;8.38;6.35;;;;;;;11.89;68.98;102545.44;4904328;29;20044;-95
2023/04/18 09:33:27;;;;;;;9.13;5.63;;;;;;;12.01;67.82;102542.03;4907689;29;20069;-96
2023/04/18 09:35:55;;;;;;;11.15;6.00;;;;;;;11.89;68.17;102553.50;4888220;29;20116;-96
2023/04/18 09:38:39;;;;;;;10.87;6.10;;;;;;;11.84;69.53;102537.25;4886256;29;20036;-95
2023/04/18 09:44:16;;;;;;;9.88;6.05;;;;;;;11.70;68.95;102508.88;4910052;29;20047;-96
2023/04/18 09:46:45;;;;;;;8.43;5.63;;;;;;;11.80;67.47;102530.69;4893405;29;20501;-96
2023/04/18 09:49:14;;;;;;;9.15;6.38;;;;;;;11.72;69.24;102530.97;4891255;29;20472;-96
2023/04/18 09:51:55;;;;;;;11.65;5.72;;;;;;;12.11;69.02;102526.19;4892456;29;20052;-95
2023/04/18 09:54:38;;;;;;;6.63;5.35;;;;;;;12.83;66.81;102527.25;4893774;29;20051;-96
2023/04/18 09:57:19;;;;;;;7.00;5.35;;;;;;;13.06;63.73;102520.25;4909765;29;20048;-89
2023/04/18 10:00:18;;;;;;;6.85;5.43;;;;;;;13.13;64.39;102532.56;4896738;29;20033;-89
2023/04/18 10:03:10;;;;;;;8.00;6.10;;;;;;;12.97;63.58;102522.47;4884811;29;20052;-88
2023/04/18 10:05:37;;;;;;;8.50;5.53;;;;;;;12.97;63.82;102506.31;4957760;23;20044;-90
2023/04/18 10:08:03;;;;;;;23.17;6.13;;;;;;;13.08;62.78;102540.50;4902033;29;21006;-90
2023/04/18 10:10:31;;;;;;;15.90;4.78;;;;;;;13.14;63.38;102536.06;4897279;29;20123;-89
2023/04/18 10:13:01;;;;;;;8.70;4.72;;;;;;;13.09;61.57;102536.78;4893071;29;20029;-91
2023/04/18 10:15:29;;;;;;;20.70;3.80;;;;;;;12.89;61.92;102531.69;4863499;29;20115;-94
2023/04/18 10:18:24;;;;;;;9.37;4.17;;;;;;;12.84;63.81;102532.41;4909399;29;20284;-96
2023/04/18 10:21:02;;;;;;;4.78;4.10;;;;;;;12.75;64.11;102527.59;4893047;29;20572;-96
2023/04/18 10:23:33;;;;;;;5.45;3.90;;;;;;;12.60;63.93;102528.84;4891764;29;20040;-95
2023/04/18 10:26:16;;;;;;;5.72;4.20;;;;;;;12.54;63.43;102538.66;4906495;29;20044;-96
2023/04/18 10:28:55;;;;;;;5.60;4.30;;;;;;;12.57;64.46;102522.06;4906829;29;20040;-96
2023/04/18 10:31:26;;;;;;;4.93;4.43;;;;;;;12.54;62.86;102546.72;4892395;29;20120;-95
2023/04/18 10:33:54;;;;;;;4.80;3.83;;;;;;;12.85;63.68;102525.97;5125737;23;20044;-96
2023/04/18 10:36:20;;;;;;;4.68;4.07;;;;;;;13.03;61.22;102527.75;4910033;29;20059;-94
2023/04/18 10:39:22;;;;;;;4.72;4.22;;;;;;;12.89;62.12;102515.56;4934202;29;20032;-94
2023/04/18 10:41:59;;;;;;;4.53;4.13;;;;;;;12.85;60.49;102509.03;4929419;29;20024;-96
2023/04/18 10:44:39;;;;;;;5.50;4.38;;;;;;;12.91;61.83;102508.06;4906643;29;20029;-96
2023/04/18 10:47:14;;;;;;;5.53;4.40;;;;;;;13.48;60.87;102537.16;5009563;23;20080;-96
2023/04/18 10:49:52;;;;;;;5.33;4.47;;;;;;;13.51;60.71;102517.00;4896073;29;20072;-95
2023/04/18 10:52:17;;;;;;;9.03;4.63;;;;;;;13.64;59.51;102529.41;4873769;29;20293;-93
2023/04/18 10:55:11;;;;;;;5.28;4.43;;;;;;;13.60;59.79;102547.09;4898498;29;20048;-96
2023/04/18 11:00:19;;;;;;;6.07;4.80;;;;;;;12.81;60.28;102507.84;5711857;23;20592;-95
2023/04/18 11:02:58;;;;;;;7.47;4.90;;;;;;;12.72;62.10;102520.81;4937498;29;20056;-96
2023/04/18 11:05:27;;;;;;;6.03;4.90;;;;;;;12.61;63.27;102508.97;4901065;29;20021;-96
2023/04/18 11:08:03;;;;;;;6.22;5.07;;;;;;;12.76;63.76;102518.47;5097709;23;20053;-96
2023/04/18 11:10:40;;;;;;;7.35;5.32;;;;;;;12.83;64.10;102528.06;4916615;29;20080;-94
2023/04/18 11:13:06;;;;;;;5.90;5.15;;;;;;;12.84;62.94;102523.53;4885455;29;20044;-94
2023/04/18 11:15:31;;;;;;;9.63;5.70;;;;;;;12.84;62.44;102527.00;4901813;29;20020;-96
2023/04/18 11:18:03;;;;;;;7.03;6.07;;;;;;;12.71;62.49;102524.53;4904496;29;20389;-96
2023/04/18 11:20:36;;;;;;;7.70;5.55;;;;;;;12.66;65.18;102519.88;4914276;29;20122;-96
2023/04/18 11:23:02;;;;;;;7.13;5.68;;;;;;;12.67;63.51;102517.97;4911474;29;20033;-96
2023/04/18 11:25:31;;;;;;;7.97;6.00;;;;;;;12.59;63.77;102521.81;4897637;29;20065;-93
2023/04/18 11:30:38;;;;;;;10.23;6.45;;;;;;;12.46;65.66;102538.97;5908803;23;20902;-96
2023/04/18 11:35:44;;;;;;;10.15;6.18;;;;;;;12.26;65.10;102515.84;5185267;23;20056;-96
2023/04/18 11:38:12;;;;;;;9.53;6.70;;;;;;;12.03;65.95;102513.91;4920929;29;20039;-96
2023/04/18 11:40:37;;;;;;;12.03;6.87;;;;;;;12.07;67.23;102508.88;4901810;29;20357;-94
2023/04/18 11:43:09;;;;;;;10.25;6.57;;;;;;;12.30;66.85;102518.09;4906350;29;20021;-96
2023/04/18 11:45:50;;;;;;;9.93;6.50;;;;;;;12.46;66.36;102505.88;4905749;29;20036;-96
2023/04/18 11:48:38;;;;;;;10.45;5.75;;;;;;;12.51;66.38;102530.19;4906369;29;20028;-95
2023/04/18 11:51:37;;;;;;;7.73;5.97;;;;;;;12.45;66.75;102531.13;4921853;29;20107;-95
2023/04/18 11:54:37;;;;;;;8.83;5.53;;;;;;;12.41;65.56;102503.91;4928371;29;20660;-96
2023/04/18 11:57:07;;;;;;;7.55;6.32;;;;;;;12.80;66.15;102533.09;4928993;29;20033;-96
2023/04/18 11:59:33;;;;;;;9.02;6.30;;;;;;;13.39;65.24;102525.06;4927015;29;20024;-96
2023/04/18 12:02:03;;;;;;;8.13;5.90;;;;;;;13.77;61.86;102522.94;4890186;29;20064;-96
2023/04/18 12:04:54;;;;;;;8.18;6.53;;;;;;;13.83;62.27;102505.00;4915351;29;20060;-96
2023/04/18 12:07:43;;;;;;;8.32;6.05;;;;;;;13.91;62.09;102534.25;4931437;29;20111;-96
2023/04/18 12:10:29;;;;;;;8.75;6.75;;;;;;;13.85;63.08;102521.75;4886721;29;20068;-95
2023/04/18 12:12:57;;;;;;;10.90;7.18;;;;;;;13.91;63.24;102512.69;4920970;29;20058;-96
2023/04/18 12:15:27;;;;;;;9.20;6.73;;;;;;;14.10;61.94;102497.16;4914579;29;20036;-96
2023/04/18 12:17:59;;;;;;;9.30;6.87;;;;;;;14.31;60.80;102502.94;4901412;29;20289;-95
2023/04/18 12:20:38;;;;;;;11.77;8.40;;;;;;;14.48;60.42;102524.53;4932686;29;20040;-96
2023/04/18 12:23:09;;;;;;;11.75;7.65;;;;;;;14.40;59.50;102523.06;4933431;29;20036;-95
2023/04/18 12:25:35;;;;;;;10.60;7.93;;;;;;;14.31;60.72;102514.53;4935573;29;20024;-96
2023/04/18 12:28:14;;;;;;;9.52;7.00;;;;;;;14.04;61.91;102498.13;4931585;29;20039;-95
2023/04/18 12:30:42;;;;;;;11.65;7.97;;;;;;;14.00;61.62;102496.97;4904240;29;20117;-96
2023/04/18 12:33:25;;;;;;;11.50;7.43;;;;;;;14.34;61.68;102530.22;4999475;23;20095;-95
2023/04/18 12:35:57;;;;;;;9.50;7.43;;;;;;;14.30;61.69;102510.19;4912277;29;20092;-96
2023/04/18 12:38:27;;;;;;;11.53;8.80;;;;;;;14.66;59.16;102494.63;4906730;29;20120;-95
2023/04/18 12:40:59;;;;;;;11.40;8.20;;;;;;;15.23;59.91;102500.94;4916442;29;20305;-96
2023/04/18 12:43:31;;;;;;;8.38;7.15;;;;;;;15.63;58.88;102530.63;4915365;29;20044;-96
2023/04/18 12:46:00;;;;;;;9.35;7.55;;;;;;;15.72;57.47;102500.22;4897909;29;20029;-96
2023/04/18 12:48:42;;;;;;;13.98;8.75;;;;;;;15.45;57.22;102500.94;4895547;29;20037;-96
2023/04/18 12:51:20;;;;;;;13.65;9.38;;;;;;;14.94;58.38;102501.06;4879434;29;20045;-96
2023/04/18 12:53:51;;;;;;;14.43;9.85;;;;;;;14.82;59.73;102519.19;4874250;29;20036;-96
2023/04/18 12:56:17;;;;;;;11.10;8.20;;;;;;;14.67;60.21;102496.28;4897810;29;20029;-96
2023/04/18 12:58:43;;;;;;;13.53;8.53;;;;;;;14.50;60.39;102517.84;4899466;29;20119;-94
2023/04/18 13:01:08;;;;;;;11.43;7.47;;;;;;;14.10;61.81;102505.25;4888397;29;20693;-96
2023/04/18 13:03:35;;;;;;;10.33;8.00;;;;;;;14.12;62.76;102513.09;4892929;29;20021;-94
2023/04/18 13:06:00;;;;;;;22.88;8.18;;;;;;;14.16;61.94;102525.03;4889777;29;20412;-91
2023/04/18 13:08:26;;;;;;;19.13;7.77;;;;;;;14.25;62.05;102520.88;4897559;29;20036;-89
2023/04/18 13:10:51;;;;;;;18.67;8.57;;;;;;;14.28;62.68;102517.72;4897499;29;20028;-88
2023/04/18 13:13:16;;;;;;;20.23;9.20;;;;;;;14.61;62.24;102521.50;4897235;29;20032;-92
2023/04/18 13:15:42;;;;;;;17.00;9.13;;;;;;;15.02;61.17;102515.19;4895699;29;20119;-89
2023/04/18 13:18:07;;;;;;;15.53;9.70;;;;;;;15.05;59.31;102517.41;4894938;29;20033;-90
2023/04/18 13:20:33;;;;;;;23.47;10.57;;;;;;;14.97;60.38;102518.63;4902763;29;20037;-89
2023/04/18 13:22:58;;;;;;;35.00;10.55;;;;;;;14.81;60.15;102509.47;4879148;29;20029;-88
2023/04/18 13:25:25;;;;;;;15.60;10.23;;;;;;;14.80;59.21;102513.22;4891824;29;20080;-96
2023/04/18 13:27:51;;;;;;;13.93;9.38;;;;;;;14.74;60.43;102512.31;4897209;29;20025;-95
2023/04/18 13:30:16;;;;;;;13.68;9.55;;;;;;;14.84;60.66;102508.97;4893500;29;20049;-96
2023/04/18 13:32:43;;;;;;;14.93;9.63;;;;;;;14.96;59.37;102512.44;4900799;29;20045;-96
2023/04/18 13:35:09;;;;;;;13.25;9.65;;;;;;;14.63;60.25;102505.09;4903646;29;20091;-96
2023/04/18 13:37:36;;;;;;;16.70;11.40;;;;;;;14.54;61.61;102508.19;4914557;29;20021;-96
2023/04/18 13:40:04;;;;;;;16.90;11.48;;;;;;;14.73;62.40;102499.09;4911404;29;20052;-96
2023/04/18 13:42:32;;;;;;;12.45;9.93;;;;;;;15.11;61.59;102511.81;4912378;29;20147;-95
2023/04/18 13:44:58;;;;;;;12.07;9.50;;;;;;;15.64;59.44;102514.16;4904214;29;20017;-95
2023/04/18 13:47:24;;;;;;;16.13;9.73;;;;;;;15.69;58.87;102524.22;4911987;29;20096;-96
2023/04/18 13:49:56;;;;;;;12.57;9.07;;;;;;;15.36;59.62;102513.25;4913228;29;20021;-96
2023/04/18 13:52:22;;;;;;;12.73;9.80;;;;;;;15.47;60.86;102511.53;4898007;29;20127;-96
2023/04/18 13:54:50;;;;;;;18.60;9.80;;;;;;;15.37;60.46;102514.91;4909675;29;20052;-96
2023/04/18 13:57:15;;;;;;;14.77;9.57;;;;;;;15.13;60.10;102514.28;4909261;29;20352;-96
2023/04/18 13:59:40;;;;;;;17.08;10.77;;;;;;;14.66;61.01;102510.81;4908281;29;20048;-94
2023/04/18 14:02:08;;;;;;;17.17;10.20;;;;;;;14.22;62.80;102506.00;4908562;29;20021;-96
2023/04/18 14:04:34;;;;;;;17.95;11.18;;;;;;;14.00;63.34;102505.03;4915880;29;20044;-96
2023/04/18 14:07:05;;;;;;;16.70;11.93;;;;;;;13.73;64.94;102495.63;4918161;29;20037;-96
2023/04/18 14:09:31;;;;;;;16.83;11.95;;;;;;;13.65;65.60;102504.09;4915627;29;20056;-96
2023/04/18 14:11:57;;;;;;;20.05;10.93;;;;;;;13.87;66.00;102501.56;4898210;29;20017;-96
2023/04/18 14:14:32;;;;;;;16.00;10.57;;;;;;;14.37;64.72;102491.16;5049407;23;20063;-96
2023/04/18 14:21:00;;;;;;;;;;;;;;;;;;;;;
2023/04/18 14:23:25;;;;;;;15.57;9.48;;;;;;;14.47;62.39;102498.63;4857504;29;20066;-95
2023/04/18 14:25:55;;;;;;;24.23;9.93;;;;;;;14.35;62.07;102482.50;5027879;23;20051;-96
2023/04/18 14:28:29;;;;;;;16.63;11.17;;;;;;;14.45;63.05;102488.09;4941097;29;20020;-95